Time;durP1;ratioP1;P1;durP2;ratioP2;P2;SDS_P1;SDS_P2;PMS_P1;PMS_P2;Temp;Humidity;BMP_temperature;BMP_pressure;BME280_temperature;BME280_humidity;BME280_pressure;Samples;Min_cycle;Max_cycle;Signal;HPM_P1;HPM_P2
2022/07/02 00:01:38;;;;;;;4.68;2.20;;;15.20;99.90;;;;;;5060899;28;20035;-77
2022/07/02 00:04:05;;;;;;;3.53;2.08;;;15.20;99.90;;;;;;5095509;28;20047;-77
2022/07/02 00:06:32;;;;;;;4.32;2.33;;;15.20;99.90;;;;;;5098148;28;20039;-78
2022/07/02 00:09:00;;;;;;;4.25;2.30;;;15.20;99.90;;;;;;5048208;28;20047;-78
2022/07/02 00:11:26;;;;;;;3.40;2.17;;;15.20;99.90;;;;;;5081141;28;20043;-77
2022/07/02 00:13:53;;;;;;;3.13;2.40;;;15.20;99.90;;;;;;5081206;28;20039;-77
2022/07/02 00:16:18;;;;;;;6.13;2.50;;;15.20;99.90;;;;;;5098255;28;20027;-77
2022/07/02 00:18:44;;;;;;;6.63;2.63;;;15.10;99.90;;;;;;5064189;28;20047;-77
2022/07/02 00:21:12;;;;;;;4.43;2.50;;;15.10;99.90;;;;;;5081059;28;20086;-77
2022/07/02 00:23:37;;;;;;;6.45;2.80;;;15.00;99.90;;;;;;5080819;28;20074;-77
2022/07/02 00:26:12;;;;;;;3.83;2.47;;;15.00;99.90;;;;;;5097628;28;20048;-77
2022/07/02 00:28:42;;;;;;;3.55;2.58;;;15.00;99.90;;;;;;5097899;28;20144;-77
2022/07/02 00:31:08;;;;;;;5.28;2.22;;;14.90;99.90;;;;;;5080728;28;20052;-77
2022/07/02 00:33:37;;;;;;;5.40;2.60;;;14.90;99.90;;;;;;5097744;28;20047;-78
2022/07/02 00:36:03;;;;;;;5.75;2.53;;;14.80;99.90;;;;;;5064392;28;20522;-77
2022/07/02 00:38:29;;;;;;;4.57;2.58;;;14.90;99.90;;;;;;5098146;28;20039;-77
2022/07/02 00:40:57;;;;;;;6.05;2.47;;;14.80;99.90;;;;;;5064197;28;20365;-77
2022/07/02 00:43:23;;;;;;;3.17;2.53;;;14.80;99.90;;;;;;5064279;28;20074;-77
2022/07/02 00:45:51;;;;;;;3.80;2.35;;;14.70;99.90;;;;;;5080657;28;20480;-77
2022/07/02 00:48:16;;;;;;;4.70;2.55;;;14.70;99.90;;;;;;5097626;28;20035;-77
2022/07/02 00:50:42;;;;;;;4.68;2.65;;;14.80;99.90;;;;;;5080446;28;20043;-77
2022/07/02 00:53:08;;;;;;;5.75;2.42;;;14.80;99.90;;;;;;5097537;28;20043;-77
2022/07/02 00:55:33;;;;;;;5.70;2.78;;;14.80;99.90;;;;;;5047295;28;20066;-77
2022/07/02 00:57:59;;;;;;;5.75;2.92;;;14.80;99.90;;;;;;5080663;28;20128;-78
2022/07/02 01:00:25;;;;;;;7.57;2.75;;;14.70;99.90;;;;;;5080254;28;20495;-77
2022/07/02 01:02:52;;;;;;;4.05;2.67;;;14.70;99.90;;;;;;5063803;28;20118;-77
2022/07/02 01:05:21;;;;;;;6.78;3.88;;;14.70;99.90;;;;;;5080198;28;20044;-77
2022/07/02 01:10:16;;;;;;;5.30;2.97;;;14.70;99.90;;;;;;5080267;28;20104;-78
2022/07/02 01:10:52;;;;;;;6.70;3.28;;;14.60;99.90;;;;;;5083343;28;20122;-78
2022/07/02 01:13:18;;;;;;;5.65;3.13;;;14.60;99.90;;;;;;5096846;28;20407;-77
2022/07/02 01:15:44;;;;;;;5.13;3.03;;;14.50;99.90;;;;;;5079920;28;20042;-77
2022/07/02 01:18:13;;;;;;;5.60;3.20;;;14.50;99.90;;;;;;5096586;28;20036;-77
2022/07/02 01:20:38;;;;;;;5.43;3.10;;;14.50;99.90;;;;;;5063797;28;20039;-77
2022/07/02 01:23:04;;;;;;;4.93;3.28;;;14.40;99.90;;;;;;5079727;28;20123;-77
2022/07/02 01:25:30;;;;;;;5.15;3.00;;;14.50;99.90;;;;;;5096653;28;20039;-77
2022/07/02 01:27:56;;;;;;;5.55;3.40;;;14.50;99.90;;;;;;5063151;28;20043;-77
2022/07/02 01:30:21;;;;;;;5.25;3.30;;;14.40;99.90;;;;;;5063023;28;20042;-77
2022/07/02 01:32:47;;;;;;;3.97;3.25;;;14.40;99.90;;;;;;5079726;28;20040;-77
2022/07/02 01:35:13;;;;;;;5.32;3.50;;;14.40;99.90;;;;;;5079271;28;20048;-77
2022/07/02 01:37:39;;;;;;;4.47;3.15;;;14.30;99.90;;;;;;5096692;28;20105;-77
2022/07/02 01:40:06;;;;;;;5.30;3.30;;;14.30;99.90;;;;;;5079228;28;20122;-84
2022/07/02 01:42:32;;;;;;;5.93;4.18;;;14.20;99.90;;;;;;5096421;28;20471;-84
2022/07/02 01:44:57;;;;;;;7.72;3.92;;;14.20;99.90;;;;;;5096693;28;20044;-85
2022/07/02 01:47:23;;;;;;;8.55;3.33;;;14.20;99.90;;;;;;5062584;28;20063;-84
2022/07/02 01:49:49;;;;;;;6.13;3.70;;;14.10;99.90;;;;;;5096432;28;20050;-84
2022/07/02 01:52:15;;;;;;;5.68;3.95;;;14.10;99.90;;;;;;5079874;28;20035;-85
2022/07/02 01:54:41;;;;;;;8.30;4.03;;;14.10;99.90;;;;;;5096220;28;20047;-85
2022/07/02 01:57:07;;;;;;;5.85;4.00;;;14.10;99.90;;;;;;5096591;28;20036;-85
2022/07/02 01:59:34;;;;;;;7.20;3.90;;;14.00;99.90;;;;;;5062612;28;20419;-84
2022/07/02 02:02:00;;;;;;;5.35;3.42;;;14.00;99.90;;;;;;5096474;28;20349;-84
2022/07/02 02:04:26;;;;;;;6.35;3.90;;;14.00;99.90;;;;;;5096198;28;20122;-84
2022/07/02 02:06:52;;;;;;;5.40;3.80;;;13.90;99.90;;;;;;5096036;28;20131;-85
2022/07/02 02:09:18;;;;;;;5.43;3.95;;;13.90;99.90;;;;;;5095931;28;20160;-84
2022/07/02 02:11:43;;;;;;;5.80;4.13;;;13.90;99.90;;;;;;5062361;28;20047;-87
2022/07/02 02:14:09;;;;;;;7.35;4.63;;;13.90;99.90;;;;;;5079100;28;20043;-86
2022/07/02 02:16:35;;;;;;;8.57;4.35;;;13.90;99.90;;;;;;5095850;28;20040;-85
2022/07/02 02:19:01;;;;;;;6.82;4.75;;;13.80;99.90;;;;;;5078855;28;20119;-86
2022/07/02 02:21:28;;;;;;;5.55;3.97;;;13.80;99.90;;;;;;5096212;28;20046;-87
2022/07/02 02:23:54;;;;;;;6.35;3.75;;;13.80;99.90;;;;;;5095933;28;20050;-86
2022/07/02 02:26:20;;;;;;;6.65;4.22;;;13.80;99.90;;;;;;5095941;28;20467;-86
2022/07/02 02:28:46;;;;;;;4.53;4.05;;;13.80;99.90;;;;;;5095614;28;20043;-86
2022/07/02 02:31:12;;;;;;;6.57;3.75;;;13.80;99.90;;;;;;5062241;28;20180;-87
2022/07/02 02:33:38;;;;;;;7.95;4.07;;;13.80;99.90;;;;;;5061940;28;20039;-86
2022/07/02 02:36:04;;;;;;;5.80;4.20;;;13.80;99.90;;;;;;5075113;28;20049;-86
2022/07/02 02:38:30;;;;;;;5.85;4.10;;;13.80;99.90;;;;;;5092090;28;20369;-86
2022/07/02 02:40:56;;;;;;;4.93;3.92;;;13.80;99.90;;;;;;5092100;28;20114;-87
2022/07/02 02:43:21;;;;;;;8.38;5.07;;;13.70;99.90;;;;;;5058677;28;20040;-86
2022/07/02 02:45:48;;;;;;;5.82;4.10;;;13.70;99.90;;;;;;5058715;28;20040;-86
2022/07/02 02:48:15;;;;;;;7.90;4.15;;;13.70;99.90;;;;;;5042288;28;20032;-86
2022/07/02 02:50:41;;;;;;;7.30;4.00;;;13.70;99.90;;;;;;5075458;28;20113;-86
2022/07/02 02:53:06;;;;;;;5.60;3.88;;;13.70;99.90;;;;;;5091944;28;20465;-85
2022/07/02 02:55:32;;;;;;;6.75;4.07;;;13.70;99.90;;;;;;5091902;28;20076;-85
2022/07/02 02:57:58;;;;;;;9.10;4.30;;;13.70;99.90;;;;;;5075735;28;20048;-85
2022/07/02 03:00:23;;;;;;;6.15;4.28;;;13.70;99.90;;;;;;5076239;28;20472;-84
2022/07/02 03:02:49;;;;;;;5.75;4.28;;;13.70;99.90;;;;;;5092883;28;20040;-85
2022/07/02 03:05:15;;;;;;;7.82;4.38;;;13.70;99.90;;;;;;5092900;28;20435;-87
2022/07/02 03:07:40;;;;;;;7.13;4.35;;;13.60;99.90;;;;;;5075617;28;20051;-87
2022/07/02 03:10:08;;;;;;;8.48;4.50;;;13.60;99.90;;;;;;5058811;28;20122;-86
2022/07/02 03:12:34;;;;;;;5.47;3.92;;;13.60;99.90;;;;;;5042588;28;20128;-84
2022/07/02 03:14:59;;;;;;;7.75;5.47;;;13.60;99.90;;;;;;5076417;28;20122;-87
2022/07/02 03:17:25;;;;;;;6.63;5.30;;;13.60;99.90;;;;;;5059510;28;20058;-84
2022/07/02 03:19:51;;;;;;;11.32;5.85;;;13.60;99.90;;;;;;5075130;28;20403;-85
2022/07/02 03:22:17;;;;;;;8.60;5.72;;;13.50;99.90;;;;;;5075731;28;20040;-84
2022/07/02 03:24:43;;;;;;;8.65;5.28;;;13.50;99.90;;;;;;5075749;28;20077;-84
2022/07/02 03:27:08;;;;;;;6.18;4.65;;;13.40;99.90;;;;;;5092103;28;20043;-85
2022/07/02 03:29:34;;;;;;;7.63;5.28;;;13.40;99.90;;;;;;5058273;28;20048;-85
2022/07/02 03:32:00;;;;;;;8.80;5.20;;;13.40;99.90;;;;;;5075948;28;20047;-85
2022/07/02 03:34:26;;;;;;;7.78;5.03;;;13.40;99.90;;;;;;5092154;28;20126;-84
2022/07/02 03:36:51;;;;;;;5.97;4.68;;;13.40;99.90;;;;;;5059283;28;20040;-85
2022/07/02 03:39:17;;;;;;;6.43;4.88;;;13.40;99.90;;;;;;5082500;28;20468;-84
2022/07/02 03:41:43;;;;;;;9.40;5.95;;;13.30;99.90;;;;;;5103153;28;20040;-85
2022/07/02 03:44:08;;;;;;;9.07;5.53;;;13.40;99.90;;;;;;5080928;28;20548;-85
2022/07/02 03:46:34;;;;;;;7.53;5.43;;;13.30;99.90;;;;;;5082188;28;20079;-85
2022/07/02 03:49:00;;;;;;;7.72;5.45;;;13.30;99.90;;;;;;5102402;28;20040;-84
2022/07/02 03:51:26;;;;;;;7.63;5.47;;;13.30;99.90;;;;;;5100910;28;20097;-85
2022/07/02 03:53:51;;;;;;;7.78;6.50;;;13.30;99.90;;;;;;5063763;28;20047;-85
2022/07/02 03:56:17;;;;;;;9.40;6.25;;;13.30;99.90;;;;;;5080252;28;20047;-85
2022/07/02 03:58:43;;;;;;;6.72;6.05;;;13.30;99.90;;;;;;5063057;28;20044;-85
2022/07/02 04:01:08;;;;;;;6.88;5.80;;;13.20;99.90;;;;;;5095979;28;20298;-85
2022/07/02 04:03:35;;;;;;;7.25;6.00;;;13.20;99.90;;;;;;5062133;28;20093;-85
2022/07/02 04:06:01;;;;;;;8.70;5.93;;;13.10;99.90;;;;;;5079145;28;20036;-85
2022/07/02 04:08:27;;;;;;;11.18;7.25;;;13.20;99.90;;;;;;5095466;28;20047;-85
2022/07/02 04:10:53;;;;;;;6.78;5.90;;;13.20;99.90;;;;;;5078639;28;20040;-86
2022/07/02 04:13:19;;;;;;;6.38;5.47;;;13.20;99.90;;;;;;5079003;28;20040;-86
2022/07/02 04:15:45;;;;;;;8.10;6.22;;;13.20;99.90;;;;;;5078763;28;20097;-85
2022/07/02 04:18:11;;;;;;;6.03;5.22;;;13.20;99.90;;;;;;5078979;28;20068;-84
2022/07/02 04:20:37;;;;;;;8.05;5.72;;;13.20;99.90;;;;;;5095184;28;20122;-84
2022/07/02 04:23:02;;;;;;;10.48;5.82;;;13.30;99.90;;;;;;5095233;28;20040;-85
2022/07/02 04:25:28;;;;;;;7.50;5.95;;;13.30;99.90;;;;;;5095558;28;20400;-83
2022/07/02 04:27:54;;;;;;;5.97;5.22;;;13.30;99.90;;;;;;5105043;28;20050;-85
2022/07/02 04:30:20;;;;;;;6.55;5.07;;;13.40;99.90;;;;;;5095471;28;20051;-85
2022/07/02 04:32:46;;;;;;;7.65;5.47;;;13.40;99.90;;;;;;5078967;28;20040;-85
2022/07/02 04:35:12;;;;;;;9.80;5.38;;;13.40;99.90;;;;;;5076386;28;20082;-85
2022/07/02 04:37:38;;;;;;;7.75;5.38;;;13.50;99.90;;;;;;5062229;28;20491;-84
2022/07/02 04:40:04;;;;;;;6.63;5.47;;;13.50;99.90;;;;;;5078418;28;20054;-84
2022/07/02 04:42:30;;;;;;;8.20;5.70;;;13.50;99.90;;;;;;5094987;28;20365;-84
2022/07/02 04:44:56;;;;;;;9.48;4.90;;;13.60;99.90;;;;;;5078575;28;20047;-85
2022/07/02 04:47:22;;;;;;;7.50;5.22;;;13.60;99.90;;;;;;5078038;28;20040;-84
2022/07/02 04:49:47;;;;;;;8.07;5.20;;;13.70;99.90;;;;;;5077580;28;20043;-85
2022/07/02 04:52:13;;;;;;;8.20;5.47;;;13.70;99.90;;;;;;5078262;28;20048;-85
2022/07/02 04:54:40;;;;;;;7.50;5.60;;;13.70;99.90;;;;;;5061430;28;20040;-84
2022/07/02 04:57:06;;;;;;;8.73;5.93;;;13.80;99.90;;;;;;5061388;28;20036;-83
2022/07/02 04:59:31;;;;;;;6.80;5.15;;;13.80;99.90;;;;;;5078119;28;20394;-85
2022/07/02 05:01:57;;;;;;;11.43;6.32;;;13.90;99.90;;;;;;5061298;28;20476;-86
2022/07/02 05:04:23;;;;;;;10.10;5.68;;;13.80;99.90;;;;;;5061621;28;20048;-85
2022/07/02 05:06:48;;;;;;;8.75;5.68;;;13.90;99.90;;;;;;5095015;28;20445;-85
2022/07/02 05:09:14;;;;;;;10.23;5.43;;;13.90;99.90;;;;;;5061367;28;20070;-85
2022/07/02 05:11:41;;;;;;;12.95;5.30;;;13.90;99.90;;;;;;5094800;28;20066;-86
2022/07/02 05:14:06;;;;;;;12.23;6.40;;;14.00;99.90;;;;;;5094285;28;20040;-86
2022/07/02 05:16:32;;;;;;;10.25;6.60;;;14.00;99.90;;;;;;5094584;28;20118;-85
2022/07/02 05:18:57;;;;;;;6.60;5.88;;;14.10;99.90;;;;;;5061003;28;20043;-86
2022/07/02 05:21:23;;;;;;;6.63;5.65;;;14.10;99.90;;;;;;5060750;28;20067;-85
2022/07/02 05:23:49;;;;;;;9.55;5.63;;;14.20;99.90;;;;;;5078024;28;20047;-86
2022/07/02 05:26:15;;;;;;;6.97;5.20;;;14.20;99.90;;;;;;5077812;28;20079;-86
2022/07/02 05:28:40;;;;;;;7.85;5.75;;;14.20;99.90;;;;;;5060673;28;20036;-86
2022/07/02 05:31:06;;;;;;;7.30;4.95;;;14.30;99.90;;;;;;5094412;28;20036;-84
2022/07/02 05:33:32;;;;;;;8.13;5.10;;;14.40;99.90;;;;;;5077497;28;20150;-86
2022/07/02 05:35:57;;;;;;;8.07;5.53;;;14.40;99.90;;;;;;5060491;28;20044;-84
2022/07/02 05:38:23;;;;;;;9.00;5.18;;;14.50;99.90;;;;;;5060950;28;20040;-83
2022/07/02 05:40:49;;;;;;;8.88;5.35;;;14.50;99.90;;;;;;5077319;28;20036;-86
2022/07/02 05:43:15;;;;;;;8.02;5.75;;;14.60;99.90;;;;;;5061313;28;20040;-85
2022/07/02 05:45:40;;;;;;;6.80;5.10;;;14.70;99.90;;;;;;5094455;28;20112;-86
2022/07/02 05:48:06;;;;;;;7.97;5.07;;;14.70;99.90;;;;;;5077665;28;20040;-85
2022/07/02 05:50:32;;;;;;;10.65;4.75;;;14.80;99.90;;;;;;5076914;28;20047;-85
2022/07/02 05:52:57;;;;;;;6.60;4.50;;;14.80;99.90;;;;;;5076873;28;20123;-84
2022/07/02 05:55:23;;;;;;;5.90;4.78;;;14.90;99.90;;;;;;5077227;28;20044;-85
2022/07/02 05:57:49;;;;;;;9.00;3.97;;;15.00;99.90;;;;;;5043647;28;20127;-84
2022/07/02 06:00:15;;;;;;;6.55;4.70;;;15.00;99.90;;;;;;5060708;28;20468;-85
2022/07/02 06:02:40;;;;;;;5.97;4.10;;;15.10;99.90;;;;;;5077244;28;20464;-85
2022/07/02 06:07:51;;;;;;;4.82;3.60;;;15.30;99.90;;;;;;5079366;28;20127;-84
2022/07/02 06:10:20;;;;;;;5.28;3.63;;;15.40;99.90;;;;;;5076388;28;20449;-83
2022/07/02 06:12:50;;;;;;;5.32;3.95;;;15.50;99.90;;;;;;5093725;28;20047;-84
2022/07/02 06:15:17;;;;;;;7.32;3.85;;;15.50;99.90;;;;;;5084366;28;20028;-85
2022/07/02 06:17:43;;;;;;;7.13;3.70;;;15.60;99.90;;;;;;5099503;28;20055;-84
2022/07/02 06:20:10;;;;;;;7.53;3.67;;;15.70;99.90;;;;;;5117002;28;20036;-86
2022/07/02 06:22:35;;;;;;;8.77;4.15;;;15.80;99.90;;;;;;5097392;28;20096;-85
2022/07/02 06:25:01;;;;;;;8.40;4.00;;;15.80;99.90;;;;;;5079846;28;20082;-87
2022/07/02 06:27:27;;;;;;;9.77;4.03;;;16.00;99.90;;;;;;5077688;28;20036;-85
2022/07/02 06:29:53;;;;;;;5.28;3.47;;;16.10;99.90;;;;;;5094140;28;20032;-86
2022/07/02 06:32:19;;;;;;;5.47;3.25;;;16.20;99.90;;;;;;5093167;28;20047;-85
2022/07/02 06:34:45;;;;;;;10.48;2.80;;;16.30;99.90;;;;;;5073188;28;20428;-86
2022/07/02 06:37:11;;;;;;;6.53;3.05;;;16.50;99.90;;;;;;5059325;28;20048;-86
2022/07/02 06:39:37;;;;;;;4.80;2.25;;;16.60;99.90;;;;;;5092318;28;20040;-86
2022/07/02 06:44:51;;;;;;;4.07;1.50;;;16.90;99.90;;;;;;5092467;28;20048;-86
2022/07/02 06:47:17;;;;;;;2.50;1.38;;;17.10;99.90;;;;;;5075762;28;20458;-85
2022/07/02 06:49:44;;;;;;;4.22;1.20;;;17.20;99.90;;;;;;5092665;28;20408;-86
2022/07/02 06:52:11;;;;;;;4.45;1.55;;;17.40;99.90;;;;;;5075319;28;20039;-85
2022/07/02 06:54:37;;;;;;;4.55;1.70;;;17.50;99.90;;;;;;5074983;28;20036;-85
2022/07/02 06:57:03;;;;;;;4.47;1.42;;;17.60;99.90;;;;;;5092231;28;20037;-85
2022/07/02 06:59:29;;;;;;;5.68;1.92;;;17.70;99.90;;;;;;5074527;28;20043;-85
2022/07/02 07:01:55;;;;;;;4.50;1.42;;;17.80;99.90;;;;;;5091898;28;20063;-85
2022/07/02 07:04:21;;;;;;;1.75;1.10;;;17.90;99.90;;;;;;5092061;28;20074;-85
2022/07/02 07:06:56;;;;;;;3.05;1.52;;;17.90;99.90;;;;;;5075385;28;20052;-85
2022/07/02 07:09:26;;;;;;;3.47;1.95;;;18.10;99.90;;;;;;5060634;28;20075;-85
2022/07/02 07:11:52;;;;;;;3.13;1.52;;;18.20;99.90;;;;;;5092147;28;20052;-85
2022/07/02 07:14:18;;;;;;;4.43;1.70;;;18.40;99.90;;;;;;5091921;28;20110;-86
2022/07/02 07:16:44;;;;;;;4.32;1.70;;;18.50;99.90;;;;;;5079026;28;20036;-85
2022/07/02 07:19:10;;;;;;;5.45;1.80;;;18.50;99.90;;;;;;5095534;28;20047;-85
2022/07/02 07:21:38;;;;;;;4.43;1.95;;;18.60;99.90;;;;;;5094089;28;20500;-85
2022/07/02 07:24:04;;;;;;;5.38;1.77;;;18.70;99.90;;;;;;5075161;28;20078;-85
2022/07/02 07:26:31;;;;;;;3.88;1.90;;;18.80;99.90;;;;;;5093185;28;20054;-85
2022/07/02 07:28:57;;;;;;;3.28;1.55;;;19.00;99.90;;;;;;5075187;28;20043;-85
2022/07/02 07:31:22;;;;;;;2.00;1.02;;;19.10;99.90;;;;;;5091948;28;20040;-85
2022/07/02 07:33:49;;;;;;;2.35;1.20;;;19.30;99.90;;;;;;5058334;28;20039;-85
2022/07/02 07:36:15;;;;;;;2.25;1.25;;;19.40;99.90;;;;;;5091521;28;20044;-85
2022/07/02 07:38:41;;;;;;;2.42;1.20;;;19.60;99.90;;;;;;5057747;28;20048;-84
2022/07/02 07:41:07;;;;;;;2.17;1.00;;;19.80;99.90;;;;;;5091146;28;20032;-85
2022/07/02 07:43:33;;;;;;;2.28;1.20;;;20.00;99.90;;;;;;5074446;28;20044;-85
2022/07/02 07:45:59;;;;;;;2.72;1.33;;;20.40;99.90;;;;;;5075174;28;20101;-85
2022/07/02 07:48:25;;;;;;;2.38;1.17;;;20.70;99.90;;;;;;5091668;28;20047;-85
2022/07/02 07:50:50;;;;;;;6.05;1.40;;;21.00;99.70;;;;;;5057607;28;20365;-85
2022/07/02 07:53:16;;;;;;;3.17;1.17;;;21.40;99.70;;;;;;5074864;28;20032;-86
2022/07/02 07:55:42;;;;;;;3.50;1.20;;;21.60;98.70;;;;;;5058166;28;20062;-85
2022/07/02 07:58:07;;;;;;;6.20;1.30;;;21.70;98.30;;;;;;5074526;28;20040;-86
2022/07/02 08:00:33;;;;;;;1.98;1.00;;;21.90;97.40;;;;;;5074759;28;20043;-86
2022/07/02 08:02:59;;;;;;;2.03;0.73;;;22.00;97.10;;;;;;5065292;28;20047;-85
2022/07/02 08:05:25;;;;;;;2.60;0.95;;;22.20;96.60;;;;;;5074760;28;20036;-85
2022/07/02 08:07:51;;;;;;;1.63;0.90;;;22.30;95.80;;;;;;5075645;28;20286;-85
2022/07/02 08:10:17;;;;;;;2.20;0.88;;;22.50;95.20;;;;;;5041362;28;20400;-85
2022/07/02 08:12:43;;;;;;;1.75;0.80;;;22.70;94.10;;;;;;5091738;28;20121;-85
2022/07/02 08:15:09;;;;;;;1.67;1.08;;;22.80;92.60;;;;;;5091733;28;20040;-86
2022/07/02 08:17:36;;;;;;;3.83;1.10;;;22.80;92.00;;;;;;5091816;28;20106;-85
2022/07/02 08:20:04;;;;;;;4.82;0.90;;;22.70;90.90;;;;;;5091830;28;20042;-85
2022/07/02 08:22:32;;;;;;;1.67;0.80;;;22.70;90.80;;;;;;5075015;28;20120;-85
2022/07/02 08:24:57;;;;;;;1.52;0.73;;;22.80;90.70;;;;;;5092271;28;20082;-85
2022/07/02 08:27:23;;;;;;;1.73;0.85;;;22.90;89.50;;;;;;5095113;28;20048;-85
2022/07/02 08:29:49;;;;;;;1.70;0.82;;;22.90;88.50;;;;;;5096102;28;20198;-85
2022/07/02 08:32:15;;;;;;;1.13;0.60;;;23.00;86.70;;;;;;5046366;28;20071;-86
2022/07/02 08:34:41;;;;;;;1.90;0.90;;;23.10;84.50;;;;;;5081416;28;20063;-86
2022/07/02 08:37:07;;;;;;;1.95;0.98;;;23.10;83.50;;;;;;5065687;28;20039;-86
2022/07/02 08:39:33;;;;;;;0.85;0.52;;;23.00;83.00;;;;;;5082209;28;20027;-86
2022/07/02 08:42:00;;;;;;;1.90;0.80;;;23.00;82.10;;;;;;5098495;28;20035;-85
2022/07/02 08:44:27;;;;;;;3.78;1.00;;;23.00;81.80;;;;;;5081842;28;20434;-85
2022/07/02 08:46:55;;;;;;;2.30;0.60;;;23.10;82.00;;;;;;5098160;28;20067;-85
2022/07/02 08:49:21;;;;;;;2.05;0.80;;;23.10;81.10;;;;;;5098504;28;20130;-86
2022/07/02 08:51:58;;;;;;;1.55;0.73;;;23.20;80.20;;;;;;5064959;28;20079;-85
2022/07/02 08:54:24;;;;;;;1.25;0.60;;;23.30;80.00;;;;;;5098387;28;20047;-85
2022/07/02 08:56:51;;;;;;;1.45;0.80;;;23.30;78.70;;;;;;5064177;28;20089;-85
2022/07/02 08:59:18;;;;;;;1.40;0.80;;;23.50;78.00;;;;;;5098336;28;20043;-85
2022/07/02 09:01:48;;;;;;;2.38;1.05;;;23.60;77.20;;;;;;5080889;28;20093;-85
2022/07/02 09:04:19;;;;;;;2.40;0.90;;;23.70;76.80;;;;;;5065122;28;20463;-85
2022/07/02 09:06:47;;;;;;;2.78;1.05;;;23.80;75.20;;;;;;5098373;28;20491;-86
2022/07/02 09:09:12;;;;;;;1.73;0.80;;;23.90;76.00;;;;;;5098980;28;20054;-85
2022/07/02 09:11:38;;;;;;;1.58;0.98;;;23.90;75.20;;;;;;5097820;28;20407;-86
2022/07/02 09:14:06;;;;;;;2.08;0.90;;;24.00;74.50;;;;;;5080015;28;20444;-86
2022/07/02 09:16:33;;;;;;;1.38;0.68;;;24.10;73.60;;;;;;5097977;28;20395;-86
2022/07/02 09:18:59;;;;;;;1.52;0.68;;;24.30;73.40;;;;;;5098031;28;20035;-86
2022/07/02 09:21:24;;;;;;;1.92;0.73;;;24.30;72.80;;;;;;5099008;28;20075;-86
2022/07/02 09:23:50;;;;;;;3.00;1.13;;;24.40;73.00;;;;;;5097302;28;20032;-85
2022/07/02 09:26:23;;;;;;;1.02;0.45;;;24.40;72.50;;;;;;5081107;28;20111;-85
2022/07/02 09:29:01;;;;;;;1.08;0.52;;;24.50;70.90;;;;;;5098822;28;20391;-86
2022/07/02 09:31:28;;;;;;;1.35;0.57;;;24.60;68.80;;;;;;5082305;28;20391;-85
2022/07/02 09:33:54;;;;;;;0.65;0.50;;;24.60;70.80;;;;;;5081184;28;20394;-86
2022/07/02 09:36:20;;;;;;;1.65;0.70;;;24.60;70.40;;;;;;5079175;28;20052;-85
2022/07/02 09:38:48;;;;;;;2.22;0.65;;;24.60;69.00;;;;;;5080023;28;20479;-86
2022/07/02 09:41:19;;;;;;;0.93;0.52;;;24.50;68.50;;;;;;5096891;28;20054;-86
2022/07/02 09:43:45;;;;;;;3.17;0.88;;;24.60;69.50;;;;;;5097339;28;20070;-86
2022/07/02 09:46:16;;;;;;;1.98;0.57;;;24.60;68.80;;;;;;5079816;28;20038;-86
2022/07/02 09:48:42;;;;;;;2.53;0.75;;;24.70;68.40;;;;;;5097914;28;20423;-86
2022/07/02 09:51:08;;;;;;;1.85;0.70;;;24.60;65.30;;;;;;5096780;28;20065;-86
2022/07/02 09:53:34;;;;;;;1.13;0.60;;;24.50;65.60;;;;;;5081234;28;20040;-86
2022/07/02 09:56:04;;;;;;;1.23;0.57;;;24.40;65.60;;;;;;5081087;28;20114;-86
2022/07/02 09:58:30;;;;;;;2.85;0.65;;;24.30;66.30;;;;;;5097300;28;20556;-86
2022/07/02 10:01:01;;;;;;;1.35;0.50;;;24.20;67.60;;;;;;5079792;28;20039;-86
2022/07/02 10:03:28;;;;;;;1.33;0.57;;;24.10;65.60;;;;;;5099196;28;20430;-85
2022/07/02 10:05:54;;;;;;;2.40;0.50;;;24.10;66.40;;;;;;5064983;28;20042;-86
2022/07/02 10:08:20;;;;;;;1.83;0.60;;;24.10;66.20;;;;;;5081161;28;20038;-86
2022/07/02 10:10:46;;;;;;;1.73;0.57;;;24.20;66.80;;;;;;5080560;28;20139;-86
2022/07/02 10:13:14;;;;;;;2.35;0.80;;;24.20;66.90;;;;;;5063930;28;20031;-86
2022/07/02 10:16:02;;;;;;;2.38;0.60;;;24.20;66.80;;;;;;5062876;28;20039;-86
2022/07/02 10:18:28;;;;;;;1.35;0.52;;;24.20;66.30;;;;;;5095953;28;20079;-86
2022/07/02 10:20:59;;;;;;;2.33;0.65;;;24.20;66.60;;;;;;5096480;28;20035;-86
2022/07/02 10:23:25;;;;;;;3.60;0.90;;;24.20;66.40;;;;;;5081604;28;20036;-85
2022/07/02 10:25:52;;;;;;;1.77;0.80;;;24.20;66.10;;;;;;5079127;28;20039;-86
2022/07/02 10:28:18;;;;;;;0.90;0.55;;;24.10;65.00;;;;;;5079779;28;20047;-85
2022/07/02 10:30:44;;;;;;;2.45;0.70;;;23.80;65.40;;;;;;5064058;28;20115;-85
2022/07/02 10:33:34;;;;;;;1.70;0.63;;;23.70;65.70;;;;;;5079550;28;20075;-85
2022/07/02 10:36:03;;;;;;;2.08;0.65;;;23.60;65.20;;;;;;5079085;28;20112;-86
2022/07/02 10:38:34;;;;;;;2.38;1.08;;;23.40;66.20;;;;;;5080904;28;20047;-86
2022/07/02 10:41:00;;;;;;;1.30;0.70;;;23.20;67.00;;;;;;5098965;28;20131;-86
2022/07/02 10:43:28;;;;;;;1.58;0.85;;;23.20;68.20;;;;;;5063430;28;20073;-86
2022/07/02 10:46:10;;;;;;;1.67;0.77;;;23.20;68.40;;;;;;5100467;28;20047;-85
2022/07/02 10:48:49;;;;;;;3.65;0.98;;;23.30;69.50;;;;;;5103009;28;20046;-85
2022/07/02 10:51:35;;;;;;;1.17;0.57;;;23.30;69.90;;;;;;5080482;28;20479;-85
2022/07/02 10:54:03;;;;;;;2.22;0.88;;;23.40;67.50;;;;;;5098268;28;20126;-86
2022/07/02 10:56:30;;;;;;;1.85;0.68;;;23.40;68.60;;;;;;5096864;28;20364;-85
2022/07/02 10:58:56;;;;;;;3.50;0.85;;;23.40;67.80;;;;;;5079631;28;20046;-86
2022/07/02 11:01:23;;;;;;;3.72;0.77;;;23.30;68.10;;;;;;5095903;28;20100;-85
2022/07/02 11:04:01;;;;;;;2.20;0.70;;;23.20;68.20;;;;;;5080497;28;20061;-86
2022/07/02 11:06:31;;;;;;;3.28;0.70;;;23.30;68.40;;;;;;5080726;28;20028;-86
2022/07/02 11:09:01;;;;;;;1.80;0.70;;;23.40;70.00;;;;;;5080297;28;20115;-86
2022/07/02 11:11:36;;;;;;;1.15;0.70;;;23.50;70.60;;;;;;5080876;28;20096;-85
2022/07/02 11:14:05;;;;;;;1.45;0.85;;;23.60;68.30;;;;;;5095392;28;20107;-85
2022/07/02 11:16:39;;;;;;;4.32;0.93;;;23.70;69.50;;;;;;5078543;28;20456;-86
2022/07/02 11:19:12;;;;;;;1.92;0.98;;;23.80;69.00;;;;;;5094889;28;20543;-85
2022/07/02 11:21:40;;;;;;;3.55;0.80;;;23.90;68.60;;;;;;5095579;28;20463;-87
2022/07/02 11:24:06;;;;;;;1.23;0.80;;;23.90;68.90;;;;;;5078524;28;20126;-84
2022/07/02 11:26:32;;;;;;;1.60;0.60;;;23.80;68.70;;;;;;5094558;28;20122;-86
2022/07/02 11:29:03;;;;;;;1.50;0.70;;;23.70;68.10;;;;;;5095686;28;20094;-86
2022/07/02 11:31:29;;;;;;;1.60;0.63;;;23.80;68.80;;;;;;5095176;28;20047;-84
2022/07/02 11:33:56;;;;;;;3.17;1.10;;;23.80;69.20;;;;;;5078832;28;20039;-84
2022/07/02 11:36:23;;;;;;;1.23;0.60;;;23.90;70.00;;;;;;5095576;28;20055;-84
2022/07/02 11:38:50;;;;;;;1.95;0.80;;;24.00;69.30;;;;;;5078540;28;21076;-84
2022/07/02 11:41:23;;;;;;;0.88;0.60;;;24.00;69.10;;;;;;5078661;28;20119;-84
2022/07/02 11:43:55;;;;;;;1.75;0.65;;;24.10;68.80;;;;;;5079823;28;20040;-84
2022/07/02 11:46:23;;;;;;;2.78;0.98;;;24.00;68.30;;;;;;5096084;28;20337;-84
2022/07/02 11:48:51;;;;;;;2.10;0.80;;;24.00;68.90;;;;;;5095147;28;20046;-84
2022/07/02 11:51:21;;;;;;;2.22;0.70;;;24.00;68.40;;;;;;5095930;28;20031;-84
2022/07/02 11:54:01;;;;;;;1.90;0.70;;;24.00;68.00;;;;;;5078940;28;20046;-83
2022/07/02 11:56:28;;;;;;;1.77;0.90;;;24.00;67.30;;;;;;5078211;28;20118;-83
2022/07/02 11:58:55;;;;;;;1.95;0.80;;;23.90;68.30;;;;;;5078686;28;20074;-84
2022/07/02 12:01:21;;;;;;;2.60;0.80;;;23.90;69.70;;;;;;5076596;28;20050;-84
2022/07/02 12:03:49;;;;;;;1.30;0.70;;;23.90;67.60;;;;;;5104882;28;20057;-83
2022/07/02 12:06:15;;;;;;;1.80;0.90;;;23.90;68.70;;;;;;5105521;28;20071;-83
2022/07/02 12:08:42;;;;;;;2.05;1.13;;;24.00;70.00;;;;;;5097951;28;20040;-84
2022/07/02 12:11:16;;;;;;;2.80;1.02;;;23.90;69.10;;;;;;5081897;28;20048;-84
2022/07/02 12:13:43;;;;;;;1.60;0.70;;;24.00;67.30;;;;;;5082034;28;20042;-84
2022/07/02 12:16:14;;;;;;;3.17;0.90;;;23.90;69.10;;;;;;5082282;28;20043;-84
2022/07/02 12:18:40;;;;;;;5.72;0.75;;;23.90;69.50;;;;;;5082352;28;20036;-84
2022/07/02 12:21:16;;;;;;;1.15;0.68;;;24.10;71.00;;;;;;5082107;28;20044;-83
2022/07/02 12:23:51;;;;;;;1.83;0.77;;;24.20;69.60;;;;;;5099137;28;20050;-84
2022/07/02 12:26:25;;;;;;;4.77;0.80;;;24.20;69.00;;;;;;5082393;28;20039;-84
2022/07/02 12:31:44;;;;;;;;;;;24.10;69.40;;;;;;5083200;28;20040;-77
2022/07/02 12:34:10;;;;;;;1.52;0.90;;;24.00;68.10;;;;;;5096971;28;19920;-77
2022/07/02 12:36:56;;;;;;;3.78;0.70;;;24.00;69.90;;;;;;5080118;28;20055;-77
2022/07/02 12:39:37;;;;;;;1.42;0.80;;;24.10;69.20;;;;;;5080514;28;20047;-77
2022/07/02 12:42:21;;;;;;;2.88;0.93;;;24.00;68.90;;;;;;5079779;28;20044;-77
2022/07/02 12:44:59;;;;;;;3.25;0.90;;;23.90;68.60;;;;;;5079580;28;20043;-77
2022/07/02 12:47:49;;;;;;;2.47;1.05;;;23.90;68.30;;;;;;5096517;28;20043;-77
2022/07/02 12:50:15;;;;;;;2.08;0.80;;;23.90;68.50;;;;;;5079680;28;20083;-77
2022/07/02 12:52:49;;;;;;;1.77;0.88;;;23.70;68.30;;;;;;5080232;28;20079;-77
2022/07/02 12:55:33;;;;;;;2.08;0.90;;;23.70;68.70;;;;;;5079944;28;20484;-79